Time;durP1;ratioP1;P1;durP2;ratioP2;P2;SDS_P1;SDS_P2;PMS_P1;PMS_P2;Temp;Humidity;BMP_temperature;BMP_pressure;BME280_temperature;BME280_humidity;BME280_pressure;Samples;Min_cycle;Max_cycle;Signal;HPM_P1;HPM_P2
2023/04/13 00:01:26;;;;;;;8.43;2.60;;;;;;;;;;6226534;23;20032;-95
2023/04/13 00:06:37;;;;;;;12.18;2.28;;;;;;;;;;6226650;23;20129;-95
2023/04/13 00:09:04;;;;;;;4.05;2.47;;;;;;;;;;6250264;23;20001;-95
2023/04/13 00:11:31;;;;;;;5.50;2.40;;;;;;;;;;6226167;23;20074;-95
2023/04/13 00:13:57;;;;;;;4.75;2.55;;;;;;;;;;6225000;23;20000;-95
2023/04/13 00:16:27;;;;;;;6.60;2.83;;;;;;;;;;6226426;23;20324;-95
2023/04/13 00:18:54;;;;;;;4.88;2.70;;;;;;;;;;6251345;22;20421;-95
2023/04/13 00:24:15;;;;;;;5.75;2.58;;;;;;;;;;6154190;23;20020;-96
2023/04/13 00:27:01;;;;;;;10.10;3.67;;;;;;;;;;6147309;23;20001;-95
2023/04/13 00:29:28;;;;;;;7.97;3.10;;;;;;;;;;6171686;23;20055;-96
2023/04/13 00:31:55;;;;;;;6.78;3.35;;;;;;;;;;6148987;23;20001;-96
2023/04/13 00:34:21;;;;;;;6.40;3.50;;;;;;;;;;6172200;23;19997;-96
2023/04/13 00:37:08;;;;;;;6.47;3.15;;;;;;;;;;6149971;23;20530;-94
2023/04/13 00:39:35;;;;;;;5.32;3.20;;;;;;;;;;6160790;23;20005;-95
2023/04/13 00:44:52;;;;;;;5.25;2.90;;;;;;;;;;6208575;23;20031;-96
2023/04/13 00:47:29;;;;;;;5.38;3.35;;;;;;;;;;6161298;23;20077;-95
2023/04/13 00:50:00;;;;;;;6.85;3.30;;;;;;;;;;6181999;23;20008;-94
2023/04/13 00:52:27;;;;;;;6.65;3.08;;;;;;;;;;6182701;23;20004;-95
2023/04/13 00:54:55;;;;;;;6.68;2.92;;;;;;;;;;6182068;23;20068;-96
2023/04/13 00:57:24;;;;;;;5.88;3.13;;;;;;;;;;6174147;23;20067;-96
2023/04/13 00:59:51;;;;;;;8.23;3.67;;;;;;;;;;6172344;23;20009;-96
2023/04/13 01:02:29;;;;;;;9.55;3.75;;;;;;;;;;6172089;23;20020;-96
2023/04/13 01:04:56;;;;;;;8.77;4.43;;;;;;;;;;6146783;23;20036;-96
2023/04/13 01:07:43;;;;;;;6.95;3.22;;;;;;;;;;6171484;23;20020;-96
2023/04/13 01:10:39;;;;;;;4.78;2.78;;;;;;;;;;6166838;23;20023;-96
2023/04/13 01:13:14;;;;;;;7.65;3.50;;;;;;;;;;6112191;23;20022;-95
2023/04/13 01:15:45;;;;;;;10.05;4.18;;;;;;;;;;6163116;23;20006;-95
2023/04/13 01:18:14;;;;;;;5.40;2.78;;;;;;;;;;6162556;23;20012;-95
2023/04/13 01:20:42;;;;;;;3.58;1.77;;;;;;;;;;6208792;22;20013;-95
2023/04/13 01:23:30;;;;;;;8.50;3.83;;;;;;;;;;6243876;23;20092;-95
2023/04/13 01:26:01;;;;;;;6.97;3.45;;;;;;;;;;6222583;23;20009;-94
2023/04/13 01:28:28;;;;;;;5.57;3.28;;;;;;;;;;6246308;23;20008;-94
2023/04/13 01:30:59;;;;;;;4.70;2.95;;;;;;;;;;6243503;23;20490;-94
2023/04/13 01:33:29;;;;;;;3.85;2.25;;;;;;;;;;6243592;23;20028;-94
2023/04/13 01:35:59;;;;;;;5.18;2.83;;;;;;;;;;6245864;23;20063;-93
2023/04/13 01:38:26;;;;;;;4.72;2.33;;;;;;;;;;6244837;23;20016;-94
2023/04/13 01:40:52;;;;;;;7.05;4.10;;;;;;;;;;6219181;23;20017;-94
2023/04/13 01:43:19;;;;;;;6.35;3.28;;;;;;;;;;6215661;23;20019;-93
2023/04/13 01:45:45;;;;;;;7.25;2.75;;;;;;;;;;6240472;23;20009;-93
2023/04/13 01:48:12;;;;;;;4.88;2.30;;;;;;;;;;6241427;23;20012;-94
2023/04/13 01:50:56;;;;;;;4.68;2.80;;;;;;;;;;6243760;23;20015;-93
2023/04/13 01:53:25;;;;;;;5.18;2.10;;;;;;;;;;6243538;23;20067;-93
2023/04/13 01:55:52;;;;;;;6.38;2.08;;;;;;;;;;6242068;23;20008;-93
2023/04/13 01:58:26;;;;;;;2.13;1.67;;;;;;;;;;6217880;23;20088;-92
2023/04/13 02:00:54;;;;;;;4.75;2.47;;;;;;;;;;6217904;23;20016;-93
2023/04/13 02:03:22;;;;;;;2.08;1.40;;;;;;;;;;6216440;23;20020;-92
2023/04/13 02:05:52;;;;;;;10.93;2.83;;;;;;;;;;6217379;23;20009;-92
2023/04/13 02:08:19;;;;;;;5.55;2.20;;;;;;;;;;6214311;23;20012;-93
2023/04/13 02:10:45;;;;;;;4.90;1.30;;;;;;;;;;6237075;23;20007;-93
2023/04/13 02:13:12;;;;;;;3.83;1.75;;;;;;;;;;6241033;23;20013;-93
2023/04/13 02:15:38;;;;;;;4.30;2.80;;;;;;;;;;6191482;23;20009;-92
2023/04/13 02:18:12;;;;;;;3.63;1.65;;;;;;;;;;6241797;23;20465;-92
2023/04/13 02:20:42;;;;;;;5.13;2.70;;;;;;;;;;6242503;22;20017;-92
2023/04/13 02:23:09;;;;;;;3.25;2.10;;;;;;;;;;6239728;23;20012;-92
2023/04/13 02:25:35;;;;;;;5.85;2.60;;;;;;;;;;6241281;23;20089;-92
2023/04/13 02:28:02;;;;;;;9.88;2.30;;;;;;;;;;6217885;23;20017;-92
2023/04/13 02:30:28;;;;;;;4.30;2.50;;;;;;;;;;6217190;23;20009;-92
2023/04/13 02:32:57;;;;;;;5.53;2.03;;;;;;;;;;6217813;23;20004;-92
2023/04/13 02:35:24;;;;;;;4.47;2.08;;;;;;;;;;6242187;23;20009;-93
2023/04/13 02:37:51;;;;;;;6.22;2.03;;;;;;;;;;6217844;23;20039;-92
2023/04/13 02:40:19;;;;;;;5.97;2.58;;;;;;;;;;6218397;23;20052;-92
2023/04/13 02:42:45;;;;;;;9.00;2.40;;;;;;;;;;6243254;23;20062;-92
2023/04/13 02:45:13;;;;;;;1.48;1.08;;;;;;;;;;6217445;23;20024;-92
2023/04/13 02:47:39;;;;;;;6.55;2.25;;;;;;;;;;6242930;23;20414;-92
2023/04/13 02:50:06;;;;;;;6.60;2.08;;;;;;;;;;6217635;23;20005;-92
2023/04/13 02:52:32;;;;;;;3.60;2.22;;;;;;;;;;6241601;23;20087;-92
2023/04/13 02:54:58;;;;;;;4.68;1.35;;;;;;;;;;6216450;23;20015;-91
2023/04/13 02:57:33;;;;;;;8.68;2.00;;;;;;;;;;6217976;23;20019;-92
2023/04/13 02:59:59;;;;;;;3.17;1.38;;;;;;;;;;6219904;23;20013;-92
2023/04/13 03:02:26;;;;;;;4.07;1.63;;;;;;;;;;6218341;23;20486;-91
2023/04/13 03:04:53;;;;;;;8.60;2.22;;;;;;;;;;6218491;23;20009;-92
2023/04/13 03:07:20;;;;;;;5.55;1.13;;;;;;;;;;6242356;23;20013;-91
2023/04/13 03:09:46;;;;;;;4.90;1.60;;;;;;;;;;6217956;23;20031;-91
2023/04/13 03:12:12;;;;;;;5.97;1.75;;;;;;;;;;6216377;23;20008;-92
2023/04/13 03:14:38;;;;;;;3.63;1.33;;;;;;;;;;6217726;23;20012;-91
2023/04/13 03:17:10;;;;;;;2.75;1.60;;;;;;;;;;6217710;23;20019;-92
2023/04/13 03:19:36;;;;;;;1.52;0.77;;;;;;;;;;6242905;22;20012;-92
2023/04/13 03:22:03;;;;;;;9.30;1.83;;;;;;;;;;6218639;23;20455;-92
2023/04/13 03:24:29;;;;;;;4.30;1.85;;;;;;;;;;6221275;23;20019;-92
2023/04/13 03:26:56;;;;;;;3.22;1.42;;;;;;;;;;6245158;23;20051;-92
2023/04/13 03:29:23;;;;;;;3.83;2.10;;;;;;;;;;6244365;23;20309;-92
2023/04/13 03:31:50;;;;;;;3.28;1.58;;;;;;;;;;6245860;23;20016;-93
2023/04/13 03:34:17;;;;;;;2.75;1.40;;;;;;;;;;6245215;23;20367;-93
2023/04/13 03:36:43;;;;;;;1.88;0.88;;;;;;;;;;6243991;23;20040;-93
2023/04/13 03:39:10;;;;;;;3.58;1.48;;;;;;;;;;6244570;23;20009;-92
2023/04/13 03:41:39;;;;;;;7.05;2.40;;;;;;;;;;6246738;23;20013;-93
2023/04/13 03:44:09;;;;;;;5.53;2.40;;;;;;;;;;6219842;23;20013;-92
2023/04/13 03:46:38;;;;;;;5.43;2.40;;;;;;;;;;6219955;23;20020;-92
2023/04/13 03:49:13;;;;;;;6.43;1.48;;;;;;;;;;6220544;23;20042;-93
2023/04/13 03:51:39;;;;;;;5.53;2.45;;;;;;;;;;6218844;23;20020;-91
2023/04/13 03:54:05;;;;;;;6.05;2.30;;;;;;;;;;6244711;23;20311;-93
2023/04/13 03:56:32;;;;;;;5.13;1.92;;;;;;;;;;6220313;23;20407;-92
2023/04/13 03:58:58;;;;;;;1.95;1.42;;;;;;;;;;6219586;23;20001;-92
2023/04/13 04:01:26;;;;;;;4.43;2.30;;;;;;;;;;6242552;23;20509;-92
2023/04/13 04:03:55;;;;;;;2.63;1.42;;;;;;;;;;6245390;23;20016;-92
2023/04/13 04:06:21;;;;;;;3.38;0.63;;;;;;;;;;6219154;23;20009;-92
2023/04/13 04:08:48;;;;;;;10.45;2.00;;;;;;;;;;6219621;23;20040;-92
2023/04/13 04:11:15;;;;;;;6.60;2.28;;;;;;;;;;6243824;23;20004;-93
2023/04/13 04:13:48;;;;;;;3.95;2.00;;;;;;;;;;6218664;23;20086;-92
2023/04/13 04:16:15;;;;;;;6.07;1.70;;;;;;;;;;6218644;23;20016;-93
2023/04/13 04:18:41;;;;;;;7.75;1.10;;;;;;;;;;6218299;23;20005;-91
2023/04/13 04:21:07;;;;;;;4.03;2.03;;;;;;;;;;6244468;22;20138;-93
2023/04/13 04:23:36;;;;;;;4.13;1.85;;;;;;;;;;6219437;23;20043;-93
2023/04/13 04:26:03;;;;;;;7.70;1.65;;;;;;;;;;6220785;23;20009;-91
2023/04/13 04:28:29;;;;;;;5.13;1.92;;;;;;;;;;6220059;23;20024;-92
2023/04/13 04:31:00;;;;;;;2.33;1.50;;;;;;;;;;6245033;23;20016;-92
2023/04/13 04:33:26;;;;;;;3.80;1.95;;;;;;;;;;6223581;23;20012;-93
2023/04/13 04:35:53;;;;;;;7.15;2.00;;;;;;;;;;6223016;23;20424;-92
2023/04/13 04:38:23;;;;;;;5.38;2.28;;;;;;;;;;6247124;23;20004;-93
2023/04/13 04:40:56;;;;;;;9.32;2.35;;;;;;;;;;6249992;23;20004;-92
2023/04/13 04:43:24;;;;;;;3.80;1.92;;;;;;;;;;6221856;23;20013;-93
2023/04/13 04:45:50;;;;;;;3.10;2.00;;;;;;;;;;6221666;23;20013;-92
2023/04/13 04:48:17;;;;;;;16.30;6.13;;;;;;;;;;6247061;23;20008;-93
2023/04/13 04:50:44;;;;;;;6.68;3.30;;;;;;;;;;6244796;23;20028;-92
2023/04/13 04:53:11;;;;;;;8.32;4.65;;;;;;;;;;6244905;23;20459;-92
2023/04/13 04:55:37;;;;;;;4.25;1.73;;;;;;;;;;6218337;23;20450;-90
2023/04/13 04:58:03;;;;;;;9.77;2.35;;;;;;;;;;6243781;23;20060;-90
2023/04/13 05:00:30;;;;;;;3.08;1.83;;;;;;;;;;6244187;23;20012;-91
2023/04/13 05:02:56;;;;;;;3.08;2.13;;;;;;;;;;6219506;23;20028;-90
2023/04/13 05:05:26;;;;;;;2.92;1.75;;;;;;;;;;6217169;23;20009;-91
2023/04/13 05:07:52;;;;;;;5.57;2.38;;;;;;;;;;6239258;23;20374;-90
2023/04/13 05:10:18;;;;;;;4.80;2.47;;;;;;;;;;6241159;23;20386;-91
2023/04/13 05:12:47;;;;;;;5.93;2.28;;;;;;;;;;6215200;23;20074;-92
2023/04/13 05:15:13;;;;;;;6.30;1.45;;;;;;;;;;6215207;23;20051;-91
2023/04/13 05:17:40;;;;;;;9.30;3.03;;;;;;;;;;6214684;23;20013;-91
2023/04/13 05:20:09;;;;;;;8.25;3.13;;;;;;;;;;6215783;22;20021;-91
2023/04/13 05:22:36;;;;;;;2.50;1.65;;;;;;;;;;6239891;23;20015;-92
2023/04/13 05:25:08;;;;;;;5.28;2.22;;;;;;;;;;6215669;23;20032;-91
2023/04/13 05:27:34;;;;;;;9.77;2.60;;;;;;;;;;6217641;23;20558;-92
2023/04/13 05:30:00;;;;;;;5.10;3.13;;;;;;;;;;6216117;23;20339;-91
2023/04/13 05:32:26;;;;;;;3.05;1.70;;;;;;;;;;6215958;23;20028;-92
2023/04/13 05:34:52;;;;;;;7.35;3.40;;;;;;;;;;6241242;23;20337;-91
2023/04/13 05:37:22;;;;;;;7.35;3.42;;;;;;;;;;6189113;23;20035;-91
2023/04/13 05:39:48;;;;;;;5.45;3.10;;;;;;;;;;6240060;23;20016;-92
2023/04/13 05:42:23;;;;;;;7.50;3.22;;;;;;;;;;6215460;23;20385;-91
2023/04/13 05:44:49;;;;;;;9.90;3.72;;;;;;;;;;6218230;23;20016;-91
2023/04/13 05:47:20;;;;;;;6.22;3.88;;;;;;;;;;6243235;23;20015;-92
2023/04/13 05:49:46;;;;;;;10.80;3.47;;;;;;;;;;6195172;23;20039;-92
2023/04/13 05:52:12;;;;;;;10.95;4.30;;;;;;;;;;6219063;23;20004;-92
2023/04/13 05:54:38;;;;;;;7.03;3.63;;;;;;;;;;6217652;23;20036;-91
2023/04/13 05:57:05;;;;;;;5.22;3.05;;;;;;;;;;6244232;23;20022;-93
2023/04/13 05:59:31;;;;;;;8.55;2.55;;;;;;;;;;6221580;23;20031;-91
2023/04/13 06:01:58;;;;;;;11.45;4.20;;;;;;;;;;6220834;23;20136;-91
2023/04/13 06:04:25;;;;;;;4.00;2.28;;;;;;;;;;6219659;23;20031;-91
2023/04/13 06:06:53;;;;;;;2.25;1.40;;;;;;;;;;6245124;23;20016;-92
2023/04/13 06:09:20;;;;;;;1.73;1.30;;;;;;;;;;6244204;23;20000;-92
2023/04/13 06:11:46;;;;;;;4.07;2.45;;;;;;;;;;6241169;23;20493;-91
2023/04/13 06:14:12;;;;;;;5.75;2.40;;;;;;;;;;6246367;23;20180;-92
2023/04/13 06:16:38;;;;;;;5.75;2.47;;;;;;;;;;6218464;23;20091;-91
2023/04/13 06:19:04;;;;;;;5.45;2.95;;;;;;;;;;6217441;23;20012;-91
2023/04/13 06:21:36;;;;;;;2.85;1.90;;;;;;;;;;6219759;22;20072;-91
2023/04/13 06:24:03;;;;;;;11.25;2.50;;;;;;;;;;6220543;23;20070;-91
2023/04/13 06:26:29;;;;;;;4.65;1.48;;;;;;;;;;6217413;23;20034;-92
2023/04/13 06:28:55;;;;;;;3.72;1.80;;;;;;;;;;6241585;23;20008;-91
2023/04/13 06:31:22;;;;;;;7.35;2.50;;;;;;;;;;6214347;23;20005;-92
2023/04/13 06:33:49;;;;;;;7.38;2.20;;;;;;;;;;6215408;23;20435;-92
2023/04/13 06:36:15;;;;;;;7.03;2.50;;;;;;;;;;6217116;23;20066;-92
2023/04/13 06:38:41;;;;;;;5.47;2.58;;;;;;;;;;6216267;23;20015;-92
2023/04/13 06:41:17;;;;;;;4.07;1.58;;;;;;;;;;6248351;23;20019;-92
2023/04/13 06:43:43;;;;;;;5.82;1.38;;;;;;;;;;6254839;23;20082;-92
2023/04/13 06:46:19;;;;;;;2.22;1.67;;;;;;;;;;6227061;23;20095;-92
2023/04/13 06:48:48;;;;;;;7.78;2.25;;;;;;;;;;6219839;23;20041;-92
2023/04/13 06:51:15;;;;;;;9.45;2.05;;;;;;;;;;6215293;23;20024;-92
2023/04/13 06:53:44;;;;;;;6.53;2.28;;;;;;;;;;6241491;23;20451;-92
2023/04/13 06:56:10;;;;;;;4.00;2.03;;;;;;;;;;6215009;23;20036;-92
2023/04/13 06:58:36;;;;;;;4.35;2.05;;;;;;;;;;6242478;23;20065;-92
2023/04/13 07:01:03;;;;;;;7.68;2.13;;;;;;;;;;6217320;23;20008;-92
2023/04/13 07:03:30;;;;;;;2.13;1.15;;;;;;;;;;6217221;23;20001;-92
2023/04/13 07:05:56;;;;;;;3.42;1.70;;;;;;;;;;6242768;23;20004;-93
2023/04/13 07:08:22;;;;;;;3.72;1.75;;;;;;;;;;6217114;23;20009;-92
2023/04/13 07:10:53;;;;;;;8.00;3.10;;;;;;;;;;6244667;23;20389;-92
2023/04/13 07:13:19;;;;;;;6.90;2.60;;;;;;;;;;6253980;23;20004;-92
2023/04/13 07:18:34;;;;;;;6.65;2.72;;;;;;;;;;6203647;23;20008;-92
2023/04/13 07:21:08;;;;;;;14.93;3.13;;;;;;;;;;6244256;22;20091;-92
2023/04/13 07:23:46;;;;;;;9.93;3.85;;;;;;;;;;6220281;23;20009;-92
2023/04/13 07:26:17;;;;;;;4.07;2.08;;;;;;;;;;6245052;23;20001;-92
2023/04/13 07:28:43;;;;;;;14.23;3.45;;;;;;;;;;6217775;23;20013;-92
2023/04/13 07:31:10;;;;;;;13.77;3.63;;;;;;;;;;6244936;23;20016;-92
2023/04/13 07:33:58;;;;;;;5.47;2.70;;;;;;;;;;6250484;23;20004;-92
2023/04/13 07:36:24;;;;;;;4.22;2.40;;;;;;;;;;6247662;23;20589;-90
2023/04/13 07:38:51;;;;;;;1.75;1.20;;;;;;;;;;6244666;23;20000;-92
2023/04/13 07:41:21;;;;;;;2.03;1.27;;;;;;;;;;6220730;23;20031;-92
2023/04/13 07:43:48;;;;;;;13.98;3.58;;;;;;;;;;6220856;23;20009;-91
2023/04/13 07:46:25;;;;;;;3.88;1.88;;;;;;;;;;6220207;23;20091;-91
2023/04/13 07:48:55;;;;;;;16.40;2.55;;;;;;;;;;6223940;23;20455;-92
2023/04/13 07:51:52;;;;;;;11.07;3.20;;;;;;;;;;6257109;23;20005;-92
2023/04/13 07:54:21;;;;;;;12.30;2.50;;;;;;;;;;6226961;23;20008;-91
2023/04/13 07:56:48;;;;;;;6.40;2.90;;;;;;;;;;6249229;23;20446;-92
2023/04/13 07:59:15;;;;;;;4.60;1.90;;;;;;;;;;6226506;23;20015;-91
2023/04/13 08:04:35;;;;;;;11.52;2.80;;;;;;;;;;6210451;23;20014;-92
2023/04/13 08:07:06;;;;;;;16.90;3.30;;;;;;;;;;6220083;23;20013;-92
2023/04/13 08:09:36;;;;;;;3.55;1.20;;;;;;;;;;6244848;23;20031;-92
2023/04/13 08:12:07;;;;;;;2.85;1.23;;;;;;;;;;6247754;23;20005;-92
2023/04/13 08:14:43;;;;;;;9.38;2.80;;;;;;;;;;6247324;23;20005;-91
2023/04/13 08:19:54;;;;;;;2.33;1.33;;;;;;;;;;6225007;22;20172;-92
2023/04/13 08:22:26;;;;;;;5.30;1.77;;;;;;;;;;6145333;23;20047;-91
2023/04/13 08:24:53;;;;;;;4.55;1.98;;;;;;;;;;6170663;23;20040;-93
2023/04/13 08:27:19;;;;;;;10.93;2.42;;;;;;;;;;6141300;23;20438;-91
2023/04/13 08:29:45;;;;;;;3.67;1.70;;;;;;;;;;6146792;23;20033;-92
2023/04/13 08:32:19;;;;;;;2.58;1.23;;;;;;;;;;6171031;23;20005;-91
2023/04/13 08:34:50;;;;;;;2.58;0.95;;;;;;;;;;6142146;23;20025;-92
2023/04/13 08:37:16;;;;;;;3.85;1.70;;;;;;;;;;6165034;23;20020;-91
2023/04/13 08:39:42;;;;;;;2.47;1.38;;;;;;;;;;6140077;23;20025;-90
2023/04/13 08:42:09;;;;;;;4.80;1.15;;;;;;;;;;6165112;23;20009;-90
2023/04/13 08:44:39;;;;;;;3.25;3.00;;;;;;;;;;6161808;23;20009;-91
2023/04/13 08:47:15;;;;;;;4.32;1.40;;;;;;;;;;6161655;23;20013;-91
2023/04/13 08:50:01;;;;;;;5.75;1.40;;;;;;;;;;6165613;23;20001;-91
2023/04/13 08:52:28;;;;;;;5.37;1.03;;;;;;;;;;6162438;23;20005;-92
2023/04/13 08:54:55;;;;;;;3.45;1.00;;;;;;;;;;6161933;23;20241;-92
2023/04/13 08:57:21;;;;;;;10.10;2.55;;;;;;;;;;6137353;23;20480;-92
2023/04/13 08:59:52;;;;;;;3.10;2.42;;;;;;;;;;6164529;23;20013;-91
2023/04/13 09:02:41;;;;;;;3.97;1.00;;;;;;;;;;6147000;23;20021;-91
2023/04/13 09:05:14;;;;;;;3.92;1.50;;;;;;;;;;6170611;23;20009;-91
2023/04/13 09:08:03;;;;;;;5.35;1.98;;;;;;;;;;6165567;23;20009;-91
2023/04/13 09:11:22;;;;;;;1.88;1.08;;;;;;;;;;6162782;23;20001;-91
2023/04/13 09:13:40;;;;;;;1.67;0.88;;;;;;;;;;6159162;23;20095;-91
2023/04/13 09:16:26;;;;;;;2.00;0.95;;;;;;;;;;6140713;23;20028;-91
2023/04/13 09:18:57;;;;;;;0.63;0.63;;;;;;;;;;6175868;23;20005;-92
2023/04/13 09:21:43;;;;;;;5.03;0.75;;;;;;;;;;6212226;22;20012;-91
2023/04/13 09:24:11;;;;;;;1.00;0.60;;;;;;;;;;6248170;23;20027;-92
2023/04/13 09:26:40;;;;;;;3.40;0.70;;;;;;;;;;6243985;23;20032;-91
2023/04/13 09:29:08;;;;;;;0.85;0.50;;;;;;;;;;6243525;23;20001;-92
2023/04/13 09:31:37;;;;;;;4.35;0.95;;;;;;;;;;6244758;23;20335;-92
2023/04/13 09:34:09;;;;;;;3.45;1.15;;;;;;;;;;6243844;23;20069;-92
2023/04/13 09:36:56;;;;;;;6.65;0.80;;;;;;;;;;6255529;23;20005;-92
2023/04/13 09:39:26;;;;;;;5.97;1.42;;;;;;;;;;6242723;23;20001;-92
2023/04/13 09:41:53;;;;;;;6.18;1.63;;;;;;;;;;6242772;23;20410;-92
2023/04/13 09:44:23;;;;;;;3.03;1.23;;;;;;;;;;6241795;23;20412;-93
2023/04/13 09:47:03;;;;;;;4.18;1.45;;;;;;;;;;6241781;23;20482;-92
2023/04/13 09:49:39;;;;;;;6.15;1.65;;;;;;;;;;6242710;23;20009;-92
2023/04/13 09:52:07;;;;;;;9.82;1.55;;;;;;;;;;6242935;23;20313;-91
2023/04/13 09:54:33;;;;;;;6.72;1.60;;;;;;;;;;6217454;23;20556;-92
2023/04/13 09:56:59;;;;;;;4.57;1.17;;;;;;;;;;6219187;23;20083;-92
2023/04/13 09:59:26;;;;;;;2.80;0.65;;;;;;;;;;6219080;23;20052;-92
2023/04/13 10:01:54;;;;;;;0.57;0.40;;;;;;;;;;6218853;23;20032;-91
2023/04/13 10:04:20;;;;;;;1.73;0.45;;;;;;;;;;6243128;23;20020;-91
2023/04/13 10:07:10;;;;;;;1.45;0.30;;;;;;;;;;6252417;23;20066;-92
2023/04/13 10:09:43;;;;;;;1.58;0.40;;;;;;;;;;6228291;23;20001;-91
2023/04/13 10:12:13;;;;;;;0.63;0.25;;;;;;;;;;6245822;23;20032;-92
2023/04/13 10:14:42;;;;;;;0.43;0.28;;;;;;;;;;6224809;23;20012;-93
2023/04/13 10:17:21;;;;;;;2.72;0.68;;;;;;;;;;6246383;23;20044;-92
2023/04/13 10:19:50;;;;;;;4.28;0.80;;;;;;;;;;6243782;23;20451;-93
2023/04/13 10:22:18;;;;;;;1.75;0.57;;;;;;;;;;6244196;22;20024;-92
2023/04/13 10:24:57;;;;;;;4.47;0.55;;;;;;;;;;6226897;23;20008;-92
2023/04/13 10:27:27;;;;;;;0.50;0.50;;;;;;;;;;6257850;23;20032;-92
2023/04/13 10:29:54;;;;;;;3.30;0.63;;;;;;;;;;6233458;23;20007;-91
2023/04/13 10:32:42;;;;;;;0.63;0.52;;;;;;;;;;6262546;23;20004;-92
2023/04/13 10:35:31;;;;;;;;;;;;;;;;;;;;;
2023/04/13 10:38:04;;;;;;;1.05;0.60;;;;;;;;;;6232422;23;20297;-92
2023/04/13 10:40:51;;;;;;;1.48;0.85;;;;;;;;;;6226942;23;20009;-92
2023/04/13 10:43:31;;;;;;;0.73;0.40;;;;;;;;;;6250604;23;19989;-92
2023/04/13 10:49:26;;;;;;;0.50;0.50;;;;;;;;;;6181140;23;20032;-93
2023/04/13 10:52:03;;;;;;;4.57;0.93;;;;;;;;;;6210477;23;20297;-93
2023/04/13 10:54:49;;;;;;;1.23;0.75;;;;;;;;;;6233996;23;20012;-92
2023/04/13 10:57:27;;;;;;;;;;;;;;;;;;6233872;23;20004;-92
2023/04/13 10:59:56;;;;;;;0.28;0.28;;;;;;;;;;6228007;23;19907;-92
2023/04/13 11:02:32;;;;;;;6.03;0.90;;;;;;;;;;6220020;23;20445;-92
2023/04/13 11:05:01;;;;;;;1.88;0.73;;;;;;;;;;6220007;23;20036;-92
2023/04/13 11:07:28;;;;;;;2.65;0.60;;;;;;;;;;6220485;23;20012;-92
2023/04/13 11:09:58;;;;;;;3.42;0.95;;;;;;;;;;6245662;23;20005;-92
2023/04/13 11:12:43;;;;;;;0.52;0.35;;;;;;;;;;6249154;23;20032;-92
2023/04/13 11:15:09;;;;;;;3.53;1.48;;;;;;;;;;6199835;23;20012;-92
2023/04/13 11:17:35;;;;;;;4.65;0.75;;;;;;;;;;6248996;23;20049;-91
2023/04/13 11:20:05;;;;;;;17.65;1.23;;;;;;;;;;6221447;23;20004;-92
2023/04/13 11:22:35;;;;;;;4.25;0.60;;;;;;;;;;6221860;22;20442;-92
2023/04/13 11:25:08;;;;;;;6.63;1.20;;;;;;;;;;6246157;23;20019;-92
2023/04/13 11:27:36;;;;;;;1.17;0.63;;;;;;;;;;6248773;23;20080;-92
2023/04/13 11:30:05;;;;;;;2.22;1.08;;;;;;;;;;6253052;23;20008;-92
2023/04/13 11:32:33;;;;;;;5.78;1.35;;;;;;;;;;6249619;23;20008;-91
2023/04/13 11:35:09;;;;;;;5.70;1.30;;;;;;;;;;6223678;23;20009;-92
2023/04/13 11:37:54;;;;;;;3.05;0.65;;;;;;;;;;6223489;23;20043;-92
2023/04/13 11:40:26;;;;;;;3.40;0.95;;;;;;;;;;6249796;23;20060;-92
2023/04/13 11:43:00;;;;;;;25.38;2.35;;;;;;;;;;6245659;23;20011;-93
2023/04/13 11:45:27;;;;;;;7.07;1.70;;;;;;;;;;6246682;23;20011;-92
2023/04/13 11:47:55;;;;;;;2.17;1.13;;;;;;;;;;6222763;23;20055;-93
2023/04/13 11:50:22;;;;;;;15.50;2.20;;;;;;;;;;6251040;23;20146;-94
2023/04/13 11:52:49;;;;;;;3.45;1.35;;;;;;;;;;6227129;23;20047;-93
2023/04/13 11:55:16;;;;;;;8.02;1.88;;;;;;;;;;6251825;23;20375;-93
2023/04/13 11:57:55;;;;;;;7.38;1.30;;;;;;;;;;6252727;23;20016;-91
2023/04/13 12:00:43;;;;;;;14.57;2.42;;;;;;;;;;6227632;23;20020;-91
2023/04/13 12:03:14;;;;;;;10.18;1.77;;;;;;;;;;6229160;23;20063;-92
2023/04/13 12:05:41;;;;;;;8.10;1.98;;;;;;;;;;6249414;23;20004;-92
2023/04/13 12:08:07;;;;;;;7.45;2.35;;;;;;;;;;6223561;23;20019;-92
2023/04/13 12:10:35;;;;;;;12.73;2.45;;;;;;;;;;6247566;23;20481;-92
2023/04/13 12:13:08;;;;;;;7.55;2.42;;;;;;;;;;6241641;23;20427;-91
2023/04/13 12:15:36;;;;;;;9.48;1.67;;;;;;;;;;6241562;23;20008;-91
2023/04/13 12:18:03;;;;;;;4.35;1.27;;;;;;;;;;6218980;23;20032;-91
2023/04/13 12:20:38;;;;;;;11.23;2.83;;;;;;;;;;6244938;22;20016;-92
2023/04/13 12:23:17;;;;;;;14.77;2.07;;;;;;;;;;6161386;23;20107;-92
2023/04/13 12:25:54;;;;;;;7.75;2.40;;;;;;;;;;6160721;23;20567;-92
2023/04/13 12:28:20;;;;;;;10.77;1.92;;;;;;;;;;6162746;23;20009;-91
2023/04/13 12:30:46;;;;;;;20.63;2.55;;;;;;;;;;6161257;23;20304;-92
2023/04/13 12:33:16;;;;;;;16.60;1.88;;;;;;;;;;6162601;23;20064;-92
2023/04/13 12:35:42;;;;;;;14.35;1.98;;;;;;;;;;6137640;23;20157;-92
2023/04/13 12:38:08;;;;;;;9.35;1.20;;;;;;;;;;6162119;23;20009;-93
2023/04/13 12:40:34;;;;;;;11.55;2.53;;;;;;;;;;6137601;23;20598;-92
2023/04/13 12:43:01;;;;;;;12.27;2.10;;;;;;;;;;6138343;23;20005;-92
2023/04/13 12:45:28;;;;;;;2.97;0.77;;;;;;;;;;6164324;23;20008;-90
2023/04/13 12:47:57;;;;;;;8.32;1.95;;;;;;;;;;6168012;23;20257;-92
2023/04/13 12:50:23;;;;;;;15.38;1.20;;;;;;;;;;6141637;23;20455;-93
2023/04/13 12:52:49;;;;;;;12.30;3.05;;;;;;;;;;6167948;23;20035;-93
2023/04/13 12:55:29;;;;;;;10.57;1.10;;;;;;;;;;6147212;23;20009;-92
2023/04/13 12:58:02;;;;;;;15.63;1.83;;;;;;;;;;6191770;23;20036;-92
2023/04/13 13:00:28;;;;;;;11.90;1.75;;;;;;;;;;6140956;23;20044;-91
2023/04/13 13:02:59;;;;;;;10.13;2.20;;;;;;;;;;6144347;23;20017;-92
2023/04/13 13:05:35;;;;;;;2.90;1.13;;;;;;;;;;6168472;23;20324;-92
2023/04/13 13:08:13;;;;;;;9.50;1.63;;;;;;;;;;6145356;23;20013;-91
2023/04/13 13:10:40;;;;;;;9.82;1.65;;;;;;;;;;6164916;23;20541;-92
2023/04/13 13:13:06;;;;;;;17.80;2.55;;;;;;;;;;6140096;23;20009;-91
2023/04/13 13:15:39;;;;;;;8.68;1.42;;;;;;;;;;6139293;23;20005;-91
2023/04/13 13:18:07;;;;;;;3.40;1.50;;;;;;;;;;6164226;23;20065;-92
2023/04/13 13:20:39;;;;;;;10.15;2.50;;;;;;;;;;6148032;22;20005;-91
2023/04/13 13:23:08;;;;;;;10.98;2.15;;;;;;;;;;6138560;23;20518;-91
2023/04/13 13:25:45;;;;;;;6.38;1.65;;;;;;;;;;6139905;23;20024;-92
2023/04/13 13:28:11;;;;;;;18.13;1.60;;;;;;;;;;6170272;23;20069;-92
2023/04/13 13:30:38;;;;;;;13.52;3.25;;;;;;;;;;6137114;23;20021;-91
2023/04/13 13:33:04;;;;;;;15.00;1.45;;;;;;;;;;6164995;23;20025;-92
2023/04/13 13:35:54;;;;;;;16.23;2.55;;;;;;;;;;6162630;23;20016;-92
2023/04/13 13:38:22;;;;;;;13.93;1.40;;;;;;;;;;6160883;23;20328;-91
2023/04/13 13:40:48;;;;;;;8.48;1.95;;;;;;;;;;6163359;23;20016;-91
2023/04/13 13:43:36;;;;;;;7.43;1.70;;;;;;;;;;6151653;23;20040;-91
2023/04/13 13:46:04;;;;;;;6.75;1.67;;;;;;;;;;6169689;23;20097;-91
2023/04/13 13:48:34;;;;;;;9.70;1.83;;;;;;;;;;6163759;23;20016;-92
2023/04/13 13:51:00;;;;;;;9.95;2.13;;;;;;;;;;6139128;23;20067;-91
2023/04/13 13:53:26;;;;;;;10.05;1.95;;;;;;;;;;6140395;23;19997;-91
2023/04/13 13:55:55;;;;;;;3.10;1.45;;;;;;;;;;6144967;23;20067;-91
2023/04/13 13:58:21;;;;;;;7.85;1.13;;;;;;;;;;6163716;23;20016;-91
2023/04/13 14:00:48;;;;;;;6.65;1.50;;;;;;;;;;6163190;23;20009;-92
2023/04/13 14:03:16;;;;;;;6.43;1.20;;;;;;;;;;6139964;23;20009;-92
2023/04/13 14:05:42;;;;;;;6.53;1.08;;;;;;;;;;6189730;23;20009;-92
2023/04/13 14:08:09;;;;;;;3.25;0.90;;;;;;;;;;6138319;23;20009;-92
2023/04/13 14:10:35;;;;;;;8.48;1.65;;;;;;;;;;6164009;23;20075;-92
2023/04/13 14:13:01;;;;;;;16.98;1.83;;;;;;;;;;6163284;23;20028;-92
2023/04/13 14:15:28;;;;;;;2.95;1.00;;;;;;;;;;6164126;23;20553;-92
2023/04/13 14:17:55;;;;;;;10.13;1.90;;;;;;;;;;6137115;23;20063;-92
2023/04/13 14:20:21;;;;;;;8.88;0.82;;;;;;;;;;6139257;23;20013;-92
2023/04/13 14:22:53;;;;;;;6.82;1.50;;;;;;;;;;6189207;23;20031;-91
2023/04/13 14:25:28;;;;;;;13.32;2.17;;;;;;;;;;6217802;23;20020;-91
2023/04/13 14:28:13;;;;;;;3.25;1.33;;;;;;;;;;6219953;23;20383;-93
2023/04/13 14:30:39;;;;;;;5.57;1.58;;;;;;;;;;6221758;23;20017;-91
2023/04/13 14:33:06;;;;;;;11.57;1.98;;;;;;;;;;6243979;23;20012;-92
2023/04/13 14:35:37;;;;;;;2.70;0.98;;;;;;;;;;6243757;23;20005;-91
2023/04/13 14:38:04;;;;;;;4.10;1.83;;;;;;;;;;6244196;23;20009;-92
2023/04/13 14:43:32;;;;;;;;;;;;;;;;;;6175651;23;20036;-92
2023/04/13 14:45:58;;;;;;;3.67;1.10;;;;;;;;;;6221143;23;20233;-92
2023/04/13 14:48:25;;;;;;;12.15;1.80;;;;;;;;;;6220073;23;20019;-92
2023/04/13 14:50:51;;;;;;;10.73;1.67;;;;;;;;;;6221031;23;20343;-92
2023/04/13 14:53:17;;;;;;;5.75;1.15;;;;;;;;;;6219521;23;20011;-92
2023/04/13 14:55:44;;;;;;;4.63;1.58;;;;;;;;;;6246490;23;20008;-92
2023/04/13 14:58:11;;;;;;;6.90;1.52;;;;;;;;;;6247563;23;20009;-92
2023/04/13 15:00:37;;;;;;;3.30;1.05;;;;;;;;;;6219086;23;20009;-92
2023/04/13 15:03:06;;;;;;;7.88;2.08;;;;;;;;;;6219364;23;20024;-92
2023/04/13 15:05:37;;;;;;;11.45;1.90;;;;;;;;;;6242818;23;20004;-92
2023/04/13 15:08:05;;;;;;;2.20;0.90;;;;;;;;;;6217923;23;20020;-92
2023/04/13 15:10:41;;;;;;;5.75;1.42;;;;;;;;;;6244104;23;20087;-93
2023/04/13 15:13:08;;;;;;;3.30;1.60;;;;;;;;;;6243873;23;20071;-92
2023/04/13 15:15:35;;;;;;;4.68;1.30;;;;;;;;;;6217949;23;20008;-93
2023/04/13 15:18:03;;;;;;;6.40;1.08;;;;;;;;;;6244000;23;20009;-92
2023/04/13 15:20:29;;;;;;;10.52;1.52;;;;;;;;;;6244856;23;20416;-93
2023/04/13 15:22:56;;;;;;;9.57;1.20;;;;;;;;;;6245136;22;20108;-93